createdAt,value
2019-05-09T00:00:04.166Z,12.20
2019-05-09T00:01:05.396Z,12.20
2019-05-09T00:02:08.356Z,12.20
2019-05-09T00:03:09.409Z,12.20
2019-05-09T00:04:10.476Z,12.20
2019-05-09T00:05:13.799Z,12.10
2019-05-09T00:06:14.883Z,12.10
2019-05-09T00:07:15.948Z,12.10
2019-05-09T00:08:17.016Z,12.10
2019-05-09T00:09:18.277Z,12.10
2019-05-09T00:10:19.436Z,12.00
2019-05-09T00:11:20.489Z,12.10
2019-05-09T00:12:23.386Z,12.10
2019-05-09T00:13:24.540Z,12.10
2019-05-09T00:14:25.600Z,12.10
2019-05-09T00:15:26.660Z,12.10
2019-05-09T00:16:27.719Z,12.20
2019-05-09T00:17:28.767Z,12.20
2019-05-09T00:18:29.820Z,12.20
2019-05-09T00:19:33.192Z,12.20
2019-05-09T00:20:38.261Z,12.10
2019-05-09T00:21:43.538Z,12.10
2019-05-09T00:22:44.264Z,12.10
2019-05-09T00:23:45.328Z,12.10
2019-05-09T00:24:46.429Z,12.00
2019-05-09T00:25:47.515Z,12.00
2019-05-09T00:26:48.578Z,12.00
2019-05-09T00:27:49.627Z,12.00
2019-05-09T00:28:53.375Z,12.00
2019-05-09T00:29:54.758Z,12.00
2019-05-09T00:31:00.509Z,12.00
2019-05-09T00:32:05.984Z,12.00
2019-05-09T00:33:07.044Z,12.00
2019-05-09T00:34:10.004Z,12.00
2019-05-09T00:35:15.724Z,12.00
2019-05-09T00:36:16.875Z,12.00
2019-05-09T00:37:17.940Z,12.00
2019-05-09T00:38:20.900Z,12.00
2019-05-09T00:39:23.664Z,12.00
2019-05-09T00:40:24.941Z,12.00
2019-05-09T00:41:26.084Z,12.00
2019-05-09T00:42:27.140Z,12.10
2019-05-09T00:43:28.202Z,12.10
2019-05-09T00:44:33.931Z,12.10
2019-05-09T00:45:39.816Z,12.00
2019-05-09T00:46:45.531Z,12.00
2019-05-09T00:47:46.588Z,12.00
2019-05-09T00:48:55.373Z,12.00
2019-05-09T00:49:56.436Z,12.00
2019-05-09T00:50:57.491Z,12.00
2019-05-09T00:51:58.600Z,12.10
2019-05-09T00:52:59.667Z,12.10
2019-05-09T00:54:01.016Z,12.10
2019-05-09T00:55:03.957Z,12.10
2019-05-09T00:56:05.150Z,12.20
2019-05-09T00:57:06.200Z,12.10
2019-05-09T00:58:07.256Z,12.10
2019-05-09T00:59:08.316Z,12.10
2019-05-09T01:00:14.602Z,12.20
2019-05-09T01:01:15.566Z,12.20
2019-05-09T01:02:16.907Z,12.10
2019-05-09T01:03:17.965Z,12.10
2019-05-09T01:04:19.131Z,12.10
2019-05-09T01:05:20.180Z,12.10
2019-05-09T01:06:23.635Z,12.10
2019-05-09T01:07:24.193Z,12.10
2019-05-09T01:08:25.243Z,12.10
2019-05-09T01:09:26.620Z,12.10
2019-05-09T01:10:27.680Z,12.10
2019-05-09T01:11:28.737Z,12.10
2019-05-09T01:12:29.797Z,12.10
2019-05-09T01:13:30.848Z,12.10
2019-05-09T01:14:33.852Z,12.10
2019-05-09T01:15:34.884Z,12.10
2019-05-09T01:16:36.029Z,12.10
2019-05-09T01:17:37.084Z,12.10
2019-05-09T01:18:38.240Z,12.10
2019-05-09T01:19:39.305Z,12.10
2019-05-09T01:20:40.372Z,12.20
2019-05-09T01:21:43.690Z,12.20
2019-05-09T01:22:44.389Z,12.20
2019-05-09T01:23:45.464Z,12.20
2019-05-09T01:24:46.528Z,12.20
2019-05-09T01:25:47.680Z,12.30
2019-05-09T01:26:48.732Z,12.30
2019-05-09T01:27:49.784Z,12.30
2019-05-09T01:28:53.549Z,12.30
2019-05-09T01:29:54.108Z,12.30
2019-05-09T01:30:55.164Z,12.30
2019-05-09T01:31:58.120Z,12.30
2019-05-09T01:33:06.610Z,12.30
2019-05-09T01:34:13.319Z,12.30
2019-05-09T01:35:14.616Z,12.30
2019-05-09T01:36:15.871Z,12.40
2019-05-09T01:37:17.013Z,12.40
2019-05-09T01:38:18.068Z,12.40
2019-05-09T01:39:19.128Z,12.40
2019-05-09T01:40:20.288Z,12.40
2019-05-09T01:41:28.089Z,12.40
2019-05-09T01:42:24.307Z,12.40
2019-05-09T01:43:25.464Z,12.40
2019-05-09T01:44:27.759Z,12.40
2019-05-09T01:45:28.823Z,12.50
2019-05-09T01:46:29.879Z,12.50
2019-05-09T01:47:30.937Z,12.50
2019-05-09T01:48:34.107Z,12.50
2019-05-09T01:49:35.047Z,12.50
2019-05-09T01:50:36.108Z,12.50
2019-05-09T01:51:37.169Z,12.50
2019-05-09T01:52:38.324Z,12.50
2019-05-09T01:53:43.633Z,12.50
2019-05-09T01:54:45.560Z,12.50
2019-05-09T01:55:58.799Z,12.50
2019-05-09T01:56:59.850Z,12.50
2019-05-09T01:58:03.268Z,12.50
2019-05-09T01:59:03.857Z,12.50
2019-05-09T02:00:06.023Z,12.50
2019-05-09T02:01:08.476Z,12.50
2019-05-09T02:02:09.652Z,12.50
2019-05-09T02:03:10.712Z,12.50
2019-05-09T02:04:13.732Z,12.50
2019-05-09T02:05:14.840Z,12.50
2019-05-09T02:06:15.988Z,12.60
2019-05-09T02:07:17.040Z,12.60
2019-05-09T02:08:18.109Z,12.60
2019-05-09T02:09:19.379Z,12.60
2019-05-09T02:10:20.448Z,12.60
2019-05-09T02:11:23.646Z,12.60
2019-05-09T02:12:24.666Z,12.60
2019-05-09T02:13:25.812Z,12.60
2019-05-09T02:14:28.758Z,12.60
2019-05-09T02:15:43.824Z,12.50
2019-05-09T02:17:03.399Z,12.60
2019-05-09T02:18:09.465Z,12.60
2019-05-09T02:19:33.044Z,12.50
2019-05-09T02:20:34.061Z,12.50
2019-05-09T02:21:35.112Z,12.50
2019-05-09T02:22:36.171Z,12.40
2019-05-09T02:23:37.241Z,12.40
2019-05-09T02:24:38.284Z,12.40
2019-05-09T02:25:39.349Z,12.40
2019-05-09T02:26:40.397Z,12.40
2019-05-09T02:27:43.515Z,12.40
2019-05-09T02:28:44.411Z,12.40
2019-05-09T02:29:45.468Z,12.40
2019-05-09T02:30:46.537Z,12.40
2019-05-09T02:31:47.707Z,12.40
2019-05-09T02:32:48.878Z,12.50
2019-05-09T02:33:50.031Z,12.50
2019-05-09T02:34:54.543Z,12.50
2019-05-09T02:36:00.797Z,12.50
2019-05-09T02:36:58.734Z,12.50
2019-05-09T02:37:59.932Z,12.50
2019-05-09T02:39:00.992Z,12.50
2019-05-09T02:40:03.247Z,12.60
2019-05-09T02:41:04.301Z,12.50
2019-05-09T02:42:10.779Z,12.50
2019-05-09T02:43:09.937Z,12.60
2019-05-09T02:44:11.279Z,12.60
2019-05-09T02:45:13.523Z,12.60
2019-05-09T02:46:19.191Z,12.60
2019-05-09T02:47:24.571Z,12.60
2019-05-09T02:48:25.705Z,12.70
2019-05-09T02:49:28.685Z,12.60
2019-05-09T02:50:29.712Z,12.60
2019-05-09T02:51:30.778Z,12.60
2019-05-09T02:52:31.928Z,12.60
2019-05-09T02:53:32.990Z,12.60
2019-05-09T02:54:34.040Z,12.60
2019-05-09T02:55:38.527Z,12.60
2019-05-09T02:56:38.657Z,12.60
2019-05-09T02:57:39.925Z,12.60
2019-05-09T02:58:51.797Z,12.50
2019-05-09T03:00:11.415Z,12.50
2019-05-09T03:01:14.473Z,12.50
2019-05-09T03:02:19.468Z,12.50
2019-05-09T03:03:22.308Z,12.40
2019-05-09T03:04:23.461Z,12.40
2019-05-09T03:05:24.520Z,12.40
2019-05-09T03:06:28.297Z,12.40
2019-05-09T03:07:48.736Z,12.30
2019-05-09T03:08:50.125Z,12.30
2019-05-09T03:09:51.420Z,12.30
2019-05-09T03:10:52.585Z,12.30
2019-05-09T03:11:54.013Z,12.20
2019-05-09T03:13:03.053Z,12.30
2019-05-09T03:14:04.206Z,12.20
2019-05-09T03:15:05.552Z,12.20
2019-05-09T03:16:08.789Z,12.20
2019-05-09T03:17:09.982Z,12.20
2019-05-09T03:18:11.364Z,12.20
2019-05-09T03:19:12.413Z,12.20
2019-05-09T03:20:18.114Z,12.20
2019-05-09T03:21:23.140Z,12.20
2019-05-09T03:22:24.415Z,12.20
2019-05-09T03:23:28.246Z,12.20
2019-05-09T03:24:29.049Z,12.20
2019-05-09T03:25:31.092Z,12.20
2019-05-09T03:26:34.077Z,12.20
2019-05-09T03:27:48.440Z,12.20
2019-05-09T03:29:02.764Z,12.20
2019-05-09T03:30:11.937Z,12.20
2019-05-09T03:31:13.393Z,12.20
2019-05-09T03:32:14.454Z,12.20
2019-05-09T03:33:15.512Z,12.20
2019-05-09T03:34:19.576Z,12.10
2019-05-09T03:35:19.532Z,12.10
2019-05-09T03:36:20.584Z,12.20
2019-05-09T03:37:21.666Z,12.20
2019-05-09T03:38:22.832Z,12.20
2019-05-09T03:39:23.966Z,12.20
2019-05-09T03:40:27.167Z,12.20
2019-05-09T03:41:28.368Z,12.10
2019-05-09T03:42:39.671Z,12.20
2019-05-09T03:43:32.576Z,12.20
2019-05-09T03:44:33.632Z,12.20
2019-05-09T03:45:37.664Z,12.20
2019-05-09T03:46:47.652Z,12.30
2019-05-09T03:47:50.754Z,12.30
2019-05-09T03:49:02.429Z,12.30
2019-05-09T03:50:08.399Z,12.20
2019-05-09T03:51:09.574Z,12.30
2019-05-09T03:52:10.619Z,12.20
2019-05-09T03:53:11.698Z,12.20
2019-05-09T03:54:12.748Z,12.20
2019-05-09T03:55:17.917Z,12.20
2019-05-09T03:56:23.697Z,12.20
2019-05-09T03:57:28.336Z,12.20
2019-05-09T03:58:29.781Z,12.20
2019-05-09T03:59:30.903Z,12.10
2019-05-09T04:00:31.955Z,12.20
2019-05-09T04:01:33.009Z,12.20
2019-05-09T04:02:34.083Z,12.10
2019-05-09T04:03:35.144Z,12.10
2019-05-09T04:04:38.232Z,12.10
2019-05-09T04:05:39.155Z,12.10
2019-05-09T04:06:41.460Z,12.10
2019-05-09T04:07:42.556Z,12.10
2019-05-09T04:08:43.660Z,12.20
2019-05-09T04:09:44.836Z,12.20
2019-05-09T04:10:50.473Z,12.20
2019-05-09T04:11:51.708Z,12.20
2019-05-09T04:12:56.599Z,12.30
2019-05-09T04:13:58.207Z,12.30
2019-05-09T04:14:59.379Z,12.30
2019-05-09T04:16:00.440Z,12.20
2019-05-09T04:17:01.492Z,12.20
2019-05-09T04:18:02.584Z,12.30
2019-05-09T04:19:03.632Z,12.30
2019-05-09T04:20:04.685Z,12.20
2019-05-09T04:21:05.732Z,12.20
2019-05-09T04:22:08.047Z,12.20
2019-05-09T04:23:09.358Z,12.20
2019-05-09T04:24:10.672Z,12.20
2019-05-09T04:25:13.732Z,12.20
2019-05-09T04:26:17.663Z,12.20
2019-05-09T04:27:20.814Z,12.00
2019-05-09T04:28:23.831Z,12.10
2019-05-09T04:29:24.970Z,12.10
2019-05-09T04:30:27.441Z,12.10
2019-05-09T04:31:28.572Z,12.10
2019-05-09T04:32:29.632Z,12.10
2019-05-09T04:33:30.692Z,12.10
2019-05-09T04:34:31.799Z,12.10
2019-05-09T04:35:32.854Z,12.10
2019-05-09T04:36:39.712Z,12.10
2019-05-09T04:37:40.764Z,12.10
2019-05-09T04:38:42.104Z,12.10
2019-05-09T04:39:43.160Z,12.20
2019-05-09T04:40:45.943Z,12.10
2019-05-09T04:41:48.745Z,12.10
2019-05-09T04:42:50.133Z,12.20
2019-05-09T04:43:51.304Z,12.20
2019-05-09T04:44:57.419Z,12.20
2019-05-09T04:45:59.220Z,12.20
2019-05-09T04:47:03.675Z,12.20
2019-05-09T04:48:03.240Z,12.20
2019-05-09T04:49:04.419Z,12.10
2019-05-09T04:50:07.457Z,12.10
2019-05-09T04:51:08.531Z,12.10
2019-05-09T04:52:09.613Z,12.10
2019-05-09T04:53:10.673Z,12.20
2019-05-09T04:54:11.748Z,12.10
2019-05-09T04:55:13.506Z,12.20
2019-05-09T04:56:17.525Z,12.20
2019-05-09T04:57:18.831Z,12.20
2019-05-09T04:58:19.884Z,12.20
2019-05-09T04:59:20.947Z,12.20
2019-05-09T05:00:23.899Z,12.20
2019-05-09T05:01:29.611Z,12.20
2019-05-09T05:02:35.160Z,12.20
2019-05-09T05:03:37.608Z,12.20
2019-05-09T05:04:38.777Z,12.30
2019-05-09T05:05:40.203Z,12.30
2019-05-09T05:06:41.415Z,12.40
2019-05-09T05:07:42.472Z,12.40
2019-05-09T05:08:43.538Z,12.40
2019-05-09T05:09:44.593Z,12.40
2019-05-09T05:10:47.667Z,12.40
2019-05-09T05:11:49.099Z,12.40
2019-05-09T05:12:50.448Z,12.40
2019-05-09T05:13:51.507Z,12.40
2019-05-09T05:14:52.571Z,12.40
2019-05-09T05:15:53.625Z,12.40
2019-05-09T05:16:58.098Z,12.50
2019-05-09T05:17:58.307Z,12.50
2019-05-09T05:18:59.928Z,12.50
2019-05-09T05:20:01.683Z,12.50
2019-05-09T05:21:02.944Z,12.50
2019-05-09T05:22:07.426Z,12.50
2019-05-09T05:23:13.329Z,12.50
2019-05-09T05:24:18.466Z,12.60
2019-05-09T05:25:19.261Z,12.70
2019-05-09T05:26:20.928Z,12.70
2019-05-09T05:27:21.980Z,12.70
2019-05-09T05:28:23.047Z,12.70
2019-05-09T05:29:24.116Z,12.70
2019-05-09T05:30:25.180Z,12.80
2019-05-09T05:31:28.355Z,12.80
2019-05-09T05:32:38.602Z,12.80
2019-05-09T05:33:59.992Z,12.80
2019-05-09T05:35:02.962Z,12.80
2019-05-09T05:36:07.864Z,12.80
2019-05-09T05:37:08.883Z,12.80
2019-05-09T05:38:09.949Z,12.90
2019-05-09T05:39:11.090Z,12.80
2019-05-09T05:40:12.357Z,12.80
2019-05-09T05:41:13.413Z,12.80
2019-05-09T05:42:14.472Z,12.80
2019-05-09T05:43:17.429Z,12.90
2019-05-09T05:44:18.481Z,12.90
2019-05-09T05:45:19.689Z,12.90
2019-05-09T05:46:25.520Z,12.90
2019-05-09T05:47:34.206Z,12.90
2019-05-09T05:48:38.311Z,12.90
2019-05-09T05:49:39.811Z,12.90
2019-05-09T05:50:40.861Z,12.90
2019-05-09T05:51:50.613Z,12.90
2019-05-09T05:52:51.669Z,12.90
2019-05-09T05:53:52.723Z,12.90
2019-05-09T05:54:53.792Z,12.90
2019-05-09T05:55:54.844Z,12.90
2019-05-09T05:56:57.854Z,12.90
2019-05-09T05:57:58.872Z,12.90
2019-05-09T05:58:59.935Z,12.90
2019-05-09T06:00:01.004Z,12.90
2019-05-09T06:01:04.375Z,12.90
2019-05-09T06:02:05.025Z,12.90
2019-05-09T06:03:08.570Z,12.90
2019-05-09T06:04:09.048Z,13.00
2019-05-09T06:05:10.528Z,13.00
2019-05-09T06:06:11.868Z,13.00
2019-05-09T06:07:12.925Z,13.00
2019-05-09T06:08:13.980Z,13.00
2019-05-09T06:09:15.033Z,13.00
2019-05-09T06:10:18.418Z,13.00
2019-05-09T06:11:19.168Z,13.00
2019-05-09T06:12:20.249Z,13.00
2019-05-09T06:13:21.320Z,13.00
2019-05-09T06:14:22.385Z,13.00
2019-05-09T06:15:23.557Z,13.00
2019-05-09T06:16:24.724Z,13.10
2019-05-09T06:17:25.788Z,13.10
2019-05-09T06:18:27.633Z,13.10
2019-05-09T06:19:28.894Z,13.10
2019-05-09T06:20:30.008Z,13.10
2019-05-09T06:21:31.056Z,13.10
2019-05-09T06:22:32.112Z,13.10
2019-05-09T06:23:33.168Z,13.10
2019-05-09T06:24:34.262Z,13.20
2019-05-09T06:25:35.417Z,13.20
2019-05-09T06:26:37.329Z,13.20
2019-05-09T06:27:41.888Z,13.20
2019-05-09T06:28:41.628Z,13.20
2019-05-09T06:29:42.676Z,13.20
2019-05-09T06:30:43.754Z,13.20
2019-05-09T06:31:44.800Z,13.20
2019-05-09T06:32:47.701Z,13.10
2019-05-09T06:33:53.334Z,13.10
2019-05-09T06:34:52.224Z,13.10
2019-05-09T06:35:53.304Z,13.10
2019-05-09T06:36:54.380Z,13.10
2019-05-09T06:37:55.532Z,13.10
2019-05-09T06:38:58.837Z,13.10
2019-05-09T06:39:59.553Z,13.10
2019-05-09T06:41:00.730Z,13.20
2019-05-09T06:42:01.790Z,13.20
2019-05-09T06:43:21.374Z,13.20
2019-05-09T06:44:30.214Z,13.20
2019-05-09T06:45:41.937Z,13.30
2019-05-09T06:46:45.012Z,13.30
2019-05-09T06:47:48.649Z,13.20
2019-05-09T06:48:50.055Z,13.30
2019-05-09T06:49:53.010Z,13.30
2019-05-09T06:50:54.078Z,13.30
2019-05-09T06:51:55.124Z,13.40
2019-05-09T06:52:57.348Z,13.40
2019-05-09T06:53:58.607Z,13.40
2019-05-09T06:54:59.752Z,13.50
2019-05-09T06:56:00.838Z,13.50
2019-05-09T06:57:02.740Z,13.60
2019-05-09T06:58:22.594Z,13.70
2019-05-09T06:59:23.660Z,13.70
2019-05-09T07:00:33.425Z,13.70
2019-05-09T07:01:38.943Z,13.80
2019-05-09T07:02:48.044Z,13.80
2019-05-09T07:04:09.316Z,13.80
2019-05-09T07:05:15.200Z,13.90
2019-05-09T07:06:20.776Z,13.90
2019-05-09T07:07:23.750Z,13.90
2019-05-09T07:08:37.982Z,14.00
2019-05-09T07:09:40.732Z,14.10
2019-05-09T07:10:41.788Z,14.10
2019-05-09T07:11:43.001Z,14.20
2019-05-09T07:12:44.147Z,14.20
2019-05-09T07:13:47.254Z,14.20
2019-05-09T07:14:48.784Z,14.20
2019-05-09T07:15:50.035Z,14.20
2019-05-09T07:16:51.101Z,14.20
2019-05-09T07:17:52.175Z,14.20
2019-05-09T07:18:53.256Z,14.20
2019-05-09T07:19:54.322Z,14.20
2019-05-09T07:20:57.520Z,14.20
2019-05-09T07:22:09.578Z,14.20
2019-05-09T07:23:10.725Z,14.30
2019-05-09T07:24:11.792Z,14.20
2019-05-09T07:25:29.867Z,14.20
2019-05-09T07:26:32.831Z,14.20
2019-05-09T07:27:35.906Z,14.30
2019-05-09T07:28:37.801Z,14.30
2019-05-09T07:29:38.898Z,14.30
2019-05-09T07:30:59.997Z,14.30
2019-05-09T07:32:19.911Z,14.30
2019-05-09T07:33:28.741Z,14.30
2019-05-09T07:34:40.885Z,14.30
2019-05-09T07:35:41.936Z,14.30
2019-05-09T07:36:42.997Z,14.30
2019-05-09T07:37:44.059Z,14.30
2019-05-09T07:38:47.634Z,14.30
2019-05-09T07:39:48.483Z,14.30
2019-05-09T07:40:49.683Z,14.40
2019-05-09T07:41:50.799Z,14.40
2019-05-09T07:42:51.857Z,14.40
2019-05-09T07:43:53.008Z,14.40
2019-05-09T07:44:54.097Z,14.30
2019-05-09T07:46:05.821Z,14.30
2019-05-09T07:47:07.508Z,14.30
2019-05-09T07:48:08.948Z,14.30
2019-05-09T07:49:10.131Z,14.30
2019-05-09T07:50:11.696Z,14.40
2019-05-09T07:51:12.748Z,14.40
2019-05-09T07:52:13.827Z,14.40
2019-05-09T07:53:17.578Z,14.40
2019-05-09T07:54:24.798Z,14.40
2019-05-09T07:55:21.072Z,14.50
2019-05-09T07:56:22.132Z,14.50
2019-05-09T07:57:23.204Z,14.50
2019-05-09T07:58:24.268Z,14.60
2019-05-09T07:59:27.294Z,14.60
2019-05-09T08:00:31.316Z,14.60
2019-05-09T08:01:32.372Z,14.60
2019-05-09T08:02:33.449Z,14.60
2019-05-09T08:03:34.523Z,14.60
2019-05-09T08:04:38.366Z,14.70
2019-05-09T08:05:38.876Z,14.70
2019-05-09T08:06:39.950Z,14.70
2019-05-09T08:07:41.103Z,14.70
2019-05-09T08:08:42.256Z,14.70
2019-05-09T08:09:43.312Z,14.70
2019-05-09T08:10:44.380Z,14.70
2019-05-09T08:11:48.141Z,14.70
2019-05-09T08:12:48.465Z,14.70
2019-05-09T08:13:49.570Z,14.70
2019-05-09T08:15:07.476Z,14.70
2019-05-09T08:15:53.700Z,14.70
2019-05-09T08:16:54.763Z,14.70
2019-05-09T08:17:55.912Z,14.70
2019-05-09T08:18:57.775Z,14.70
2019-05-09T08:19:59.265Z,14.80
2019-05-09T08:21:00.316Z,14.80
2019-05-09T08:22:01.379Z,14.80
2019-05-09T08:23:02.505Z,14.80
2019-05-09T08:24:03.641Z,14.80
2019-05-09T08:25:04.697Z,14.80
2019-05-09T08:26:08.488Z,14.80
2019-05-09T08:27:08.763Z,14.80
2019-05-09T08:28:09.888Z,14.80
2019-05-09T08:29:10.945Z,14.90
2019-05-09T08:30:12.008Z,14.90
2019-05-09T08:31:13.100Z,14.90
2019-05-09T08:32:14.278Z,14.90
2019-05-09T08:33:15.360Z,14.90
2019-05-09T08:34:18.530Z,14.80
2019-05-09T08:35:19.369Z,14.80
2019-05-09T08:36:20.534Z,14.80
2019-05-09T08:37:21.695Z,14.80
2019-05-09T08:38:22.768Z,14.80
2019-05-09T08:39:23.819Z,14.80
2019-05-09T08:40:24.890Z,14.80
2019-05-09T08:41:28.737Z,14.90
2019-05-09T08:42:29.407Z,14.90
2019-05-09T08:43:30.603Z,14.90
2019-05-09T08:44:31.660Z,14.90
2019-05-09T08:45:32.717Z,14.90
2019-05-09T08:46:33.782Z,15.00
2019-05-09T08:47:34.839Z,14.90
2019-05-09T08:48:37.860Z,15.00
2019-05-09T08:49:58.689Z,15.00
2019-05-09T08:51:01.928Z,15.00
2019-05-09T08:52:13.015Z,14.90
2019-05-09T08:53:08.387Z,14.90
2019-05-09T08:54:11.492Z,14.90
2019-05-09T08:55:12.586Z,14.90
2019-05-09T08:56:13.753Z,14.80
2019-05-09T08:57:14.800Z,14.80
2019-05-09T08:58:19.264Z,14.80
2019-05-09T08:59:18.833Z,14.70
2019-05-09T09:00:19.979Z,14.70
2019-05-09T09:01:29.721Z,14.60
2019-05-09T09:02:24.044Z,14.50
2019-05-09T09:03:25.113Z,14.40
2019-05-09T09:04:29.264Z,14.30
2019-05-09T09:05:29.135Z,14.30
2019-05-09T09:06:30.209Z,14.20
2019-05-09T09:07:31.382Z,14.20
2019-05-09T09:08:32.454Z,14.10
2019-05-09T09:09:33.503Z,14.10
2019-05-09T09:10:34.507Z,14.00
2019-05-09T09:11:35.575Z,14.00
2019-05-09T09:12:38.406Z,14.00
2019-05-09T09:13:39.572Z,14.00
2019-05-09T09:14:40.640Z,14.00
2019-05-09T09:16:11.740Z,14.00
2019-05-09T09:16:45.256Z,14.00
2019-05-09T09:17:48.853Z,14.00
2019-05-09T09:18:49.237Z,14.00
2019-05-09T09:19:50.317Z,14.00
2019-05-09T09:20:51.379Z,14.00
2019-05-09T09:21:52.397Z,14.00
2019-05-09T09:22:53.488Z,14.00
2019-05-09T09:23:54.633Z,14.00
2019-05-09T09:24:55.795Z,14.10
2019-05-09T09:25:58.239Z,14.00
2019-05-09T09:26:59.677Z,14.00
2019-05-09T09:28:00.812Z,14.10
2019-05-09T09:29:01.834Z,14.10
2019-05-09T09:30:19.898Z,14.10
2019-05-09T09:31:08.782Z,14.10
2019-05-09T09:32:09.811Z,14.10
2019-05-09T09:33:13.816Z,14.10
2019-05-09T09:34:13.857Z,14.10
2019-05-09T09:35:14.896Z,14.10
2019-05-09T09:36:17.847Z,14.20
2019-05-09T09:37:18.822Z,14.20
2019-05-09T09:38:19.842Z,14.10
2019-05-09T09:39:21.109Z,14.20
2019-05-09T09:40:22.112Z,14.20
2019-05-09T09:41:23.133Z,14.20
2019-05-09T09:42:24.165Z,14.30
2019-05-09T09:43:25.202Z,14.30
2019-05-09T09:44:28.511Z,14.30
2019-05-09T09:45:29.129Z,14.40
2019-05-09T09:46:30.164Z,14.40
2019-05-09T09:47:31.184Z,14.40
2019-05-09T09:48:32.233Z,14.40
2019-05-09T09:49:33.531Z,14.50
2019-05-09T09:50:34.765Z,14.50
2019-05-09T09:51:38.041Z,14.50
2019-05-09T09:52:38.764Z,14.50
2019-05-09T09:53:39.769Z,14.60
2019-05-09T09:54:40.841Z,14.60
2019-05-09T09:55:41.872Z,14.60
2019-05-09T09:56:44.813Z,14.60
2019-05-09T09:57:48.267Z,14.70
2019-05-09T09:58:50.656Z,14.60
2019-05-09T09:59:53.623Z,14.60
2019-05-09T10:01:09.173Z,14.70
2019-05-09T10:02:12.181Z,14.70
2019-05-09T10:03:13.337Z,14.70
2019-05-09T10:04:23.530Z,14.70
2019-05-09T10:05:18.998Z,14.80
2019-05-09T10:06:20.021Z,14.90
2019-05-09T10:07:21.153Z,14.90
2019-05-09T10:08:22.204Z,15.00
2019-05-09T10:09:23.236Z,15.10
2019-05-09T10:10:35.330Z,15.10
2019-05-09T10:11:36.450Z,15.20
2019-05-09T10:12:43.542Z,15.20
2019-05-09T10:13:40.449Z,15.40
2019-05-09T10:14:49.584Z,15.50
2019-05-09T10:15:52.510Z,15.60
2019-05-09T10:16:57.951Z,15.60
2019-05-09T10:18:07.530Z,15.70
2019-05-09T10:19:10.540Z,15.80
2019-05-09T10:20:19.276Z,15.90
2019-05-09T10:21:28.001Z,15.90
2019-05-09T10:22:29.043Z,15.90
2019-05-09T10:23:30.149Z,15.90
2019-05-09T10:24:31.193Z,15.90
2019-05-09T10:25:32.229Z,15.90
2019-05-09T10:26:33.632Z,15.90
2019-05-09T10:27:34.648Z,15.80
2019-05-09T10:28:37.824Z,15.80
2019-05-09T10:29:39.034Z,15.80
2019-05-09T10:30:40.326Z,15.80
2019-05-09T10:31:41.375Z,15.80
2019-05-09T10:32:42.457Z,15.80
2019-05-09T10:33:43.468Z,15.80
2019-05-09T10:34:44.498Z,15.90
2019-05-09T10:35:47.766Z,15.90
2019-05-09T10:36:48.440Z,16.00
2019-05-09T10:37:49.463Z,16.00
2019-05-09T10:38:50.468Z,16.10
2019-05-09T10:39:51.788Z,16.20
2019-05-09T10:40:53.423Z,16.30
2019-05-09T10:41:57.542Z,16.40
2019-05-09T10:43:34.056Z,16.40
2019-05-09T10:44:22.512Z,16.30
2019-05-09T10:45:41.063Z,16.30
2019-05-09T10:46:56.352Z,16.40
2019-05-09T10:47:50.141Z,16.40
2019-05-09T10:48:53.063Z,16.50
2019-05-09T10:49:54.083Z,16.60
2019-05-09T10:51:01.379Z,16.60
2019-05-09T10:51:58.223Z,16.60
2019-05-09T10:52:59.361Z,16.70
2019-05-09T10:54:00.379Z,16.70
2019-05-09T10:55:01.633Z,16.80
2019-05-09T10:56:02.745Z,16.80
2019-05-09T10:57:03.765Z,16.80
2019-05-09T10:58:04.784Z,16.80
2019-05-09T10:59:07.777Z,16.80
2019-05-09T11:00:09.085Z,16.80
2019-05-09T11:01:10.185Z,16.90
2019-05-09T11:02:11.212Z,16.90
2019-05-09T11:03:12.235Z,16.90
2019-05-09T11:04:13.249Z,16.90
2019-05-09T11:05:14.266Z,17.00
2019-05-09T11:06:18.013Z,17.00
2019-05-09T11:07:18.356Z,17.10
2019-05-09T11:08:19.513Z,17.20
2019-05-09T11:09:20.518Z,17.20
2019-05-09T11:10:28.309Z,17.20
2019-05-09T11:11:24.500Z,17.30
2019-05-09T11:12:27.576Z,17.20
2019-05-09T11:13:28.824Z,17.20
2019-05-09T11:14:36.981Z,17.20
2019-05-09T11:15:32.969Z,17.20
2019-05-09T11:16:44.849Z,17.20
2019-05-09T11:17:38.874Z,17.20
2019-05-09T11:18:39.847Z,17.20
2019-05-09T11:19:40.871Z,17.10
2019-05-09T11:20:41.895Z,17.10
2019-05-09T11:21:42.969Z,17.10
2019-05-09T11:22:43.963Z,17.10
2019-05-09T11:23:44.995Z,17.00
2019-05-09T11:24:49.924Z,17.00
2019-05-09T11:25:48.935Z,17.00
2019-05-09T11:26:49.984Z,17.00
2019-05-09T11:28:06.756Z,17.00
2019-05-09T11:28:53.897Z,17.00
2019-05-09T11:29:57.552Z,17.00
2019-05-09T11:30:58.370Z,17.00
2019-05-09T11:31:59.685Z,17.00
2019-05-09T11:33:00.729Z,16.90
2019-05-09T11:34:01.764Z,16.90
2019-05-09T11:35:08.727Z,16.70
2019-05-09T11:36:09.730Z,16.70
2019-05-09T11:37:11.260Z,16.60
2019-05-09T11:38:12.290Z,16.60
2019-05-09T11:39:13.401Z,16.60
2019-05-09T11:40:14.940Z,16.60
2019-05-09T11:41:18.969Z,16.60
2019-05-09T11:42:18.881Z,16.60
2019-05-09T11:43:19.899Z,16.50
2019-05-09T11:44:20.930Z,16.50
2019-05-09T11:45:21.951Z,16.40
2019-05-09T11:46:42.849Z,16.30
2019-05-09T11:47:46.485Z,16.30
2019-05-09T11:48:46.792Z,16.20
2019-05-09T11:49:48.171Z,16.20
2019-05-09T11:50:49.351Z,16.20
2019-05-09T11:51:50.386Z,16.20
2019-05-09T11:52:51.408Z,16.10
2019-05-09T11:53:52.449Z,16.10
2019-05-09T11:54:53.460Z,16.10
2019-05-09T11:55:54.534Z,16.00
2019-05-09T11:56:57.581Z,15.90
2019-05-09T11:57:59.176Z,15.80
2019-05-09T11:59:00.394Z,15.70
2019-05-09T12:00:02.109Z,15.70
2019-05-09T12:01:03.495Z,15.60
2019-05-09T12:02:04.716Z,15.60
2019-05-09T12:03:05.750Z,15.60
2019-05-09T12:04:08.021Z,15.50
2019-05-09T12:05:09.371Z,15.60
2019-05-09T12:06:10.385Z,15.50
2019-05-09T12:07:11.413Z,15.40
2019-05-09T12:08:12.456Z,15.50
2019-05-09T12:09:14.834Z,15.40
2019-05-09T12:10:18.566Z,15.40
2019-05-09T12:11:19.148Z,15.40
2019-05-09T12:12:20.152Z,15.40
2019-05-09T12:13:21.289Z,15.40
2019-05-09T12:14:22.609Z,15.30
2019-05-09T12:15:23.630Z,15.30
2019-05-09T12:16:24.640Z,15.30
2019-05-09T12:17:25.662Z,15.30
2019-05-09T12:18:28.600Z,15.40
2019-05-09T12:19:29.712Z,15.40
2019-05-09T12:20:30.837Z,15.30
2019-05-09T12:21:31.857Z,15.40
2019-05-09T12:22:32.893Z,15.30
2019-05-09T12:23:33.924Z,15.30
2019-05-09T12:24:34.953Z,15.30
2019-05-09T12:25:38.436Z,15.40
2019-05-09T12:26:39.271Z,15.40
2019-05-09T12:27:40.403Z,15.30
2019-05-09T12:28:41.428Z,15.30
2019-05-09T12:29:42.443Z,15.30
2019-05-09T12:30:43.469Z,15.30
2019-05-09T12:31:44.480Z,15.40
2019-05-09T12:32:45.493Z,15.40
2019-05-09T12:33:48.211Z,15.40
2019-05-09T12:34:49.432Z,15.50
2019-05-09T12:35:50.453Z,15.50
2019-05-09T12:36:51.481Z,15.50
2019-05-09T12:37:52.493Z,15.50
2019-05-09T12:38:53.553Z,15.50
2019-05-09T12:39:54.644Z,15.50
2019-05-09T12:41:00.293Z,15.40
2019-05-09T12:41:58.613Z,15.40
2019-05-09T12:42:59.737Z,15.40
2019-05-09T12:44:00.764Z,15.40
2019-05-09T12:45:03.792Z,15.30
2019-05-09T12:46:04.805Z,15.30
2019-05-09T12:47:05.891Z,15.30
2019-05-09T12:48:14.119Z,15.30
2019-05-09T12:49:09.970Z,15.30
2019-05-09T12:50:11.180Z,15.30
2019-05-09T12:51:12.204Z,15.30
2019-05-09T12:52:13.250Z,15.30
2019-05-09T12:53:14.281Z,15.30
2019-05-09T12:54:15.299Z,15.30
2019-05-09T12:55:17.870Z,15.30
2019-05-09T12:56:19.048Z,15.40
2019-05-09T12:57:20.062Z,15.40
2019-05-09T12:58:27.675Z,15.50
2019-05-09T12:59:28.957Z,15.50
2019-05-09T13:00:30.007Z,15.50
2019-05-09T13:01:31.096Z,15.50
2019-05-09T13:02:32.129Z,15.50
2019-05-09T13:03:33.160Z,15.50
2019-05-09T13:04:34.177Z,15.50
2019-05-09T13:05:35.217Z,15.60
2019-05-09T13:06:38.105Z,15.60
2019-05-09T13:07:42.383Z,15.60
2019-05-09T13:08:42.113Z,15.60
2019-05-09T13:09:43.179Z,15.60
2019-05-09T13:10:44.289Z,15.50
2019-05-09T13:11:45.309Z,15.60
2019-05-09T13:12:48.437Z,15.60
2019-05-09T13:13:49.278Z,15.60
2019-05-09T13:14:50.302Z,15.60
2019-05-09T13:15:59.197Z,15.60
2019-05-09T13:17:02.146Z,15.60
2019-05-09T13:18:03.148Z,15.70
2019-05-09T13:19:06.078Z,15.70
2019-05-09T13:20:09.194Z,15.70
2019-05-09T13:21:10.218Z,15.70
2019-05-09T13:22:11.240Z,15.80
2019-05-09T13:23:12.302Z,15.80
2019-05-09T13:24:13.361Z,15.80